createdAt,value
2023-03-12T00:00:12.903Z,65.36
2023-03-12T00:02:39.742Z,65.44
2023-03-12T00:05:07.146Z,65.42
2023-03-12T00:07:36.307Z,65.63
2023-03-12T00:10:05.608Z,65.57
2023-03-12T00:12:32.465Z,65.32
2023-03-12T00:14:59.628Z,65.66
2023-03-12T00:17:26.459Z,65.08
2023-03-12T00:19:55.322Z,65.34
2023-03-12T00:22:23.033Z,65.55
2023-03-12T00:24:55.109Z,65.45
2023-03-12T00:27:23.386Z,65.29
2023-03-12T00:29:50.198Z,65.56
2023-03-12T00:32:17.129Z,65.55
2023-03-12T00:34:44.235Z,65.46
2023-03-12T00:37:11.210Z,65.83
2023-03-12T00:39:38.054Z,65.84
2023-03-12T00:42:05.028Z,65.73
2023-03-12T00:44:32.376Z,65.41
2023-03-12T00:46:59.226Z,65.38
2023-03-12T00:49:26.421Z,66.01
2023-03-12T00:51:54.041Z,65.93
2023-03-12T00:54:21.519Z,65.38
2023-03-12T00:56:48.859Z,65.69
2023-03-12T00:59:16.391Z,65.51
2023-03-12T01:01:44.938Z,65.75
2023-03-12T01:04:12.094Z,65.68
2023-03-12T01:06:38.895Z,65.43
2023-03-12T01:09:07.956Z,65.66
2023-03-12T01:11:36.230Z,65.47
2023-03-12T01:14:05.177Z,65.69
2023-03-12T01:16:32.084Z,65.55
2023-03-12T01:19:01.701Z,65.31
2023-03-12T01:21:30.103Z,65.62
2023-03-12T01:23:58.508Z,65.75
2023-03-12T01:26:25.757Z,65.75
2023-03-12T01:28:52.574Z,65.70
2023-03-12T01:31:20.115Z,65.86
2023-03-12T01:33:51.962Z,65.60
2023-03-12T01:36:29.030Z,65.76
2023-03-12T01:38:58.705Z,65.62
2023-03-12T01:41:28.183Z,65.47
2023-03-12T01:43:55.059Z,65.60
2023-03-12T01:46:43.027Z,65.79
2023-03-12T01:49:15.371Z,65.74
2023-03-12T01:51:59.820Z,65.61
2023-03-12T01:54:39.138Z,65.59
2023-03-12T01:57:12.936Z,65.43
2023-03-12T01:59:52.881Z,65.71
2023-03-12T02:02:31.200Z,65.71
2023-03-12T02:05:13.612Z,65.30
2023-03-12T02:07:40.404Z,65.51
2023-03-12T02:10:07.390Z,65.56
2023-03-12T02:12:34.138Z,65.67
2023-03-12T02:15:01.147Z,65.35
2023-03-12T02:17:27.973Z,65.96
2023-03-12T02:20:32.443Z,65.53
2023-03-12T02:23:26.698Z,65.57
2023-03-12T02:25:54.447Z,65.65
2023-03-12T02:28:24.616Z,65.49
2023-03-12T02:30:54.272Z,66.15
2023-03-12T02:33:21.054Z,66.93
2023-03-12T02:35:48.722Z,67.01
2023-03-12T02:38:42.274Z,66.77
2023-03-12T02:41:24.374Z,67.25
2023-03-12T02:44:01.424Z,67.06
2023-03-12T02:46:33.588Z,67.08
2023-03-12T02:49:01.127Z,67.12
2023-03-12T02:51:27.887Z,66.90
2023-03-12T02:53:57.673Z,66.79
2023-03-12T02:56:27.253Z,66.78
2023-03-12T02:58:54.500Z,66.77
2023-03-12T03:01:21.675Z,66.57
2023-03-12T03:03:48.741Z,66.47
2023-03-12T03:06:16.325Z,66.36
2023-03-12T03:08:43.499Z,66.07
2023-03-12T03:11:10.281Z,66.16
2023-03-12T03:13:37.102Z,66.64
2023-03-12T03:16:04.407Z,66.06
2023-03-12T03:18:31.588Z,66.09
2023-03-12T03:21:04.617Z,66.19
2023-03-12T03:23:32.295Z,66.03
2023-03-12T03:25:59.594Z,66.38
2023-03-12T03:28:29.211Z,65.95
2023-03-12T03:31:00.794Z,65.91
2023-03-12T03:33:29.168Z,65.61
2023-03-12T03:35:59.327Z,66.02
2023-03-12T03:38:28.587Z,65.81
2023-03-12T03:40:55.798Z,65.83
2023-03-12T03:43:24.124Z,65.81
2023-03-12T03:46:03.348Z,65.73
2023-03-12T03:48:30.374Z,66.00
2023-03-12T03:51:01.951Z,65.89
2023-03-12T03:53:28.988Z,66.10
2023-03-12T03:55:55.783Z,65.66
2023-03-12T03:58:23.000Z,65.72
2023-03-12T04:00:49.787Z,65.94
2023-03-12T04:03:16.644Z,66.14
2023-03-12T04:05:46.288Z,65.76
2023-03-12T04:08:13.700Z,65.61
2023-03-12T04:10:41.073Z,65.77
2023-03-12T04:13:07.871Z,65.91
2023-03-12T04:15:34.659Z,66.15
2023-03-12T04:18:01.462Z,65.71
2023-03-12T04:20:28.297Z,66.07
2023-03-12T04:22:55.056Z,65.78
2023-03-12T04:25:21.823Z,65.73
2023-03-12T04:27:48.616Z,65.95
2023-03-12T04:30:15.471Z,65.92
2023-03-12T04:32:42.317Z,65.99
2023-03-12T04:35:09.268Z,65.78
2023-03-12T04:37:36.133Z,65.73
2023-03-12T04:40:07.389Z,65.77
2023-03-12T04:42:35.631Z,65.71
2023-03-12T04:45:04.562Z,65.87
2023-03-12T04:47:32.917Z,65.34
2023-03-12T04:50:00.214Z,65.45
2023-03-12T04:52:27.528Z,65.64
2023-03-12T04:54:55.071Z,65.80
2023-03-12T04:57:22.230Z,65.83
2023-03-12T04:59:49.106Z,65.99
2023-03-12T05:02:15.885Z,65.54
2023-03-12T05:04:42.686Z,66.13
2023-03-12T05:07:09.533Z,65.88
2023-03-12T05:09:36.375Z,65.98
2023-03-12T05:12:03.304Z,65.68
2023-03-12T05:14:30.120Z,66.00
2023-03-12T05:16:56.887Z,65.56
2023-03-12T05:19:23.687Z,65.75
2023-03-12T05:21:50.468Z,65.92
2023-03-12T05:24:17.951Z,66.37
2023-03-12T05:26:44.808Z,65.78
2023-03-12T05:29:11.580Z,65.71
2023-03-12T05:31:38.433Z,66.27
2023-03-12T05:34:05.839Z,66.42
2023-03-12T05:36:32.585Z,66.45
2023-03-12T05:38:59.354Z,66.41
2023-03-12T05:41:28.975Z,66.35
2023-03-12T05:43:57.831Z,66.45
2023-03-12T05:46:26.985Z,66.47
2023-03-12T05:48:54.386Z,66.82
2023-03-12T05:51:21.649Z,66.86
2023-03-12T05:53:48.416Z,66.75
2023-03-12T05:56:19.004Z,66.83
2023-03-12T05:58:49.726Z,66.61
2023-03-12T06:01:28.996Z,66.90
2023-03-12T06:03:56.213Z,66.74
2023-03-12T06:06:23.463Z,66.81
2023-03-12T06:08:51.335Z,67.00
2023-03-12T06:11:18.292Z,66.82
2023-03-12T06:13:45.057Z,66.84
2023-03-12T06:16:21.565Z,66.56
2023-03-12T06:18:48.941Z,66.91
2023-03-12T06:21:19.397Z,66.90
2023-03-12T06:23:47.273Z,67.29
2023-03-12T06:26:15.314Z,67.15
2023-03-12T06:28:42.777Z,66.74
2023-03-12T06:31:09.904Z,66.70
2023-03-12T06:33:36.916Z,67.10
2023-03-12T06:36:06.615Z,67.31
2023-03-12T06:38:34.560Z,66.85
2023-03-12T06:41:11.220Z,67.25
2023-03-12T06:43:39.659Z,67.10
2023-03-12T06:46:09.868Z,66.95
2023-03-12T06:48:37.243Z,67.18
2023-03-12T06:51:04.776Z,67.01
2023-03-12T06:53:32.539Z,67.02
2023-03-12T06:55:59.663Z,67.16
2023-03-12T06:58:26.754Z,67.22
2023-03-12T07:00:54.060Z,66.97
2023-03-12T07:03:21.685Z,66.76
2023-03-12T07:05:50.760Z,66.93
2023-03-12T07:08:18.694Z,66.82
2023-03-12T07:10:46.239Z,66.41
2023-03-12T07:13:13.264Z,67.47
2023-03-12T07:15:40.623Z,66.94
2023-03-12T07:18:12.100Z,67.31
2023-03-12T07:20:42.939Z,66.91
2023-03-12T07:23:10.988Z,67.31
2023-03-12T07:25:40.821Z,66.87
2023-03-12T07:28:08.681Z,66.91
2023-03-12T07:30:36.215Z,66.83
2023-03-12T07:33:06.387Z,66.87
2023-03-12T07:35:33.587Z,66.97
2023-03-12T07:38:01.907Z,67.13
2023-03-12T07:40:30.202Z,67.15
2023-03-12T07:42:57.156Z,67.07
2023-03-12T07:45:24.883Z,66.76
2023-03-12T07:47:52.015Z,67.15
2023-03-12T07:50:19.829Z,66.78
2023-03-12T07:52:47.945Z,66.68
2023-03-12T07:55:16.332Z,66.70
2023-03-12T07:57:43.237Z,66.71
2023-03-12T08:00:11.195Z,66.44
2023-03-12T08:02:38.841Z,66.61
2023-03-12T08:05:06.478Z,66.40
2023-03-12T08:07:35.061Z,66.12
2023-03-12T08:10:04.264Z,65.99
2023-03-12T08:12:31.156Z,65.89
2023-03-12T08:14:58.017Z,65.40
2023-03-12T08:17:25.068Z,65.19
2023-03-12T08:19:51.991Z,65.40
2023-03-12T08:22:18.795Z,65.06
2023-03-12T08:24:45.549Z,64.97
2023-03-12T08:27:12.381Z,64.99
2023-03-12T08:29:40.685Z,65.10
2023-03-12T08:32:08.233Z,64.82
2023-03-12T08:34:35.511Z,65.05
2023-03-12T08:37:03.282Z,64.99
2023-03-12T08:39:30.321Z,65.20
2023-03-12T08:41:57.088Z,65.06
2023-03-12T08:44:24.710Z,64.84
2023-03-12T08:46:52.605Z,64.32
2023-03-12T08:49:20.588Z,64.55
2023-03-12T08:51:47.710Z,64.48
2023-03-12T08:54:14.785Z,64.46
2023-03-12T08:56:44.432Z,64.61
2023-03-12T08:59:12.712Z,64.28
2023-03-12T09:01:43.060Z,64.67
2023-03-12T09:04:15.014Z,64.73
2023-03-12T09:06:41.977Z,64.48
2023-03-12T09:09:09.013Z,64.34
2023-03-12T09:11:39.539Z,63.81
2023-03-12T09:16:53.449Z,64.37
2023-03-12T09:19:20.977Z,64.15
2023-03-12T09:21:47.724Z,64.09
2023-03-12T09:24:14.566Z,64.35
2023-03-12T09:26:41.463Z,64.19
2023-03-12T09:29:08.293Z,63.96
2023-03-12T09:31:36.362Z,64.02
2023-03-12T09:34:04.705Z,63.94
2023-03-12T09:36:31.833Z,63.69
2023-03-12T09:38:58.813Z,63.75
2023-03-12T09:41:29.750Z,63.71
2023-03-12T09:44:04.061Z,63.34
2023-03-12T09:46:44.958Z,63.69
2023-03-12T09:49:34.923Z,63.54
2023-03-12T09:52:11.794Z,63.60
2023-03-12T09:54:49.527Z,63.71
2023-03-12T09:57:24.205Z,62.98
2023-03-12T09:59:52.254Z,62.98
2023-03-12T10:02:57.776Z,63.39
2023-03-12T10:05:41.294Z,63.42
2023-03-12T10:08:30.535Z,63.60
2023-03-12T10:11:08.206Z,63.18
2023-03-12T10:13:40.985Z,63.35
2023-03-12T10:16:26.931Z,62.85
2023-03-12T10:19:05.749Z,62.61
2023-03-12T10:21:50.219Z,62.74
2023-03-12T10:24:45.716Z,62.02
2023-03-12T10:27:16.693Z,62.18
2023-03-12T10:29:51.065Z,62.09
2023-03-12T10:32:24.333Z,62.03
2023-03-12T10:35:13.977Z,62.09
2023-03-12T10:37:47.816Z,62.37
2023-03-12T10:40:17.342Z,62.30
2023-03-12T10:42:44.386Z,62.14
2023-03-12T10:45:11.074Z,61.92
2023-03-12T10:47:57.165Z,61.91
2023-03-12T10:50:28.304Z,61.57
2023-03-12T10:53:32.943Z,61.96
2023-03-12T10:56:01.180Z,61.84
2023-03-12T10:58:38.517Z,61.32
2023-03-12T11:01:28.552Z,61.25
2023-03-12T11:04:25.604Z,61.38
2023-03-12T11:07:06.329Z,61.30
2023-03-12T11:09:33.136Z,61.32
2023-03-12T11:11:59.900Z,61.16
2023-03-12T11:14:29.711Z,61.10
2023-03-12T11:17:19.843Z,61.11
2023-03-12T11:19:46.612Z,60.99
2023-03-12T11:22:15.938Z,60.81
2023-03-12T11:25:27.232Z,61.22
2023-03-12T11:27:59.687Z,61.16
2023-03-12T11:30:37.080Z,61.32
2023-03-12T11:33:04.211Z,60.83
2023-03-12T11:35:44.401Z,61.25
2023-03-12T11:38:31.839Z,61.39
2023-03-12T11:41:25.349Z,61.85
2023-03-12T11:44:28.772Z,62.17
2023-03-12T11:47:18.632Z,61.97
2023-03-12T11:50:08.511Z,62.19
2023-03-12T11:53:07.118Z,62.17
2023-03-12T11:55:43.742Z,62.38
2023-03-12T11:58:26.833Z,62.35
2023-03-12T12:01:22.298Z,62.87
2023-03-12T12:04:04.803Z,62.67
2023-03-12T12:06:53.175Z,62.60
2023-03-12T12:09:57.399Z,62.72
2023-03-12T12:12:51.286Z,62.89
2023-03-12T12:15:58.812Z,62.52
2023-03-12T12:18:58.613Z,62.86
2023-03-12T12:21:46.026Z,62.80
2023-03-12T12:24:39.115Z,62.88
2023-03-12T12:27:20.646Z,62.80
2023-03-12T12:30:19.243Z,62.91
2023-03-12T12:33:27.856Z,63.11
2023-03-12T12:35:54.691Z,62.67
2023-03-12T12:38:35.772Z,63.06
2023-03-12T12:41:26.414Z,63.03
2023-03-12T12:44:02.157Z,63.24
2023-03-12T12:46:36.092Z,63.18
2023-03-12T12:49:28.340Z,63.57
2023-03-12T12:52:01.079Z,63.64
2023-03-12T12:54:47.155Z,63.94
2023-03-12T12:57:24.920Z,64.07
2023-03-12T13:00:39.753Z,64.28
2023-03-12T13:03:07.295Z,64.68
2023-03-12T13:05:36.985Z,64.67
2023-03-12T13:08:08.627Z,64.85
2023-03-12T13:10:35.355Z,64.58
2023-03-12T13:13:29.385Z,64.77
2023-03-12T13:16:36.369Z,64.73
2023-03-12T13:19:21.481Z,64.78
2023-03-12T13:22:10.628Z,64.81
2023-03-12T13:24:55.597Z,65.06
2023-03-12T13:27:42.640Z,64.97
2023-03-12T13:30:34.473Z,65.20
2023-03-12T13:33:03.786Z,65.26
2023-03-12T13:35:41.570Z,64.88
2023-03-12T13:38:18.644Z,65.20
2023-03-12T13:40:51.456Z,64.98
2023-03-12T13:43:37.821Z,65.43
2023-03-12T13:46:16.844Z,65.26
2023-03-12T13:48:48.954Z,65.44
2023-03-12T13:51:22.306Z,65.40
2023-03-12T13:53:54.816Z,65.43
2023-03-12T13:56:28.903Z,65.43
2023-03-12T13:59:05.093Z,65.69
2023-03-12T14:01:39.365Z,65.80
2023-03-12T14:04:17.010Z,65.73
2023-03-12T14:07:28.668Z,65.90
2023-03-12T14:10:47.829Z,66.30
2023-03-12T14:13:51.547Z,66.14
2023-03-12T14:16:28.264Z,66.38
2023-03-12T14:18:55.241Z,66.20
2023-03-12T14:21:23.687Z,66.41
2023-03-12T14:23:57.821Z,66.33
2023-03-12T14:26:28.235Z,66.75
2023-03-12T14:29:01.586Z,66.57
2023-03-12T14:31:30.901Z,66.50
2023-03-12T14:34:20.654Z,66.49
2023-03-12T14:37:16.409Z,66.52
2023-03-12T14:40:44.204Z,66.71
2023-03-12T14:43:42.466Z,66.72
2023-03-12T14:46:24.376Z,66.76
2023-03-12T14:48:55.428Z,66.91
2023-03-12T14:51:28.886Z,66.67
2023-03-12T14:53:57.328Z,66.96
2023-03-12T14:56:33.304Z,66.84
2023-03-12T14:59:22.985Z,66.92
2023-03-12T15:01:50.273Z,67.24
2023-03-12T15:04:21.145Z,67.39
2023-03-12T15:06:51.274Z,67.17
2023-03-12T15:09:29.141Z,67.01
2023-03-12T15:12:00.256Z,67.04
2023-03-12T15:14:30.469Z,67.49
2023-03-12T15:16:59.406Z,67.37
2023-03-12T15:19:33.622Z,67.56
2023-03-12T15:22:01.130Z,67.25
2023-03-12T15:24:30.498Z,67.29
2023-03-12T15:26:57.338Z,67.52
2023-03-12T15:29:27.930Z,67.31
2023-03-12T15:31:58.303Z,67.56
2023-03-12T15:34:37.547Z,67.36
2023-03-12T15:37:38.042Z,67.12
2023-03-12T15:40:22.484Z,67.36
2023-03-12T15:42:50.044Z,67.39
2023-03-12T15:45:21.965Z,67.33
2023-03-12T15:47:50.919Z,67.67
2023-03-12T15:50:43.554Z,67.62
2023-03-12T15:53:16.381Z,67.57
2023-03-12T15:56:09.395Z,67.71
2023-03-12T15:58:40.168Z,67.76
2023-03-12T16:01:23.814Z,67.57
2023-03-12T16:03:50.660Z,67.70
2023-03-12T16:06:27.931Z,67.68
2023-03-12T16:09:06.108Z,67.78
2023-03-12T16:11:36.206Z,68.04
2023-03-12T16:14:20.424Z,67.75
2023-03-12T16:16:47.567Z,68.23
2023-03-12T16:19:16.859Z,68.06
2023-03-12T16:21:44.381Z,67.99
2023-03-12T16:24:11.462Z,68.32
2023-03-12T16:26:53.606Z,68.51
2023-03-12T16:29:21.672Z,68.54
2023-03-12T16:31:55.382Z,68.49
2023-03-12T16:34:22.660Z,68.68
2023-03-12T16:36:49.611Z,68.73
2023-03-12T16:39:18.753Z,68.71
2023-03-12T16:41:46.365Z,68.85
2023-03-12T16:44:19.980Z,68.75
2023-03-12T16:46:47.195Z,68.99
2023-03-12T16:49:16.250Z,68.87
2023-03-12T16:51:43.281Z,68.97
2023-03-12T16:54:12.008Z,68.83
2023-03-12T16:56:43.841Z,68.97
2023-03-12T16:59:25.916Z,69.26
2023-03-12T17:01:52.961Z,69.03
2023-03-12T17:04:19.987Z,68.86
2023-03-12T17:06:46.843Z,68.93
2023-03-12T17:09:13.735Z,69.14
2023-03-12T17:11:40.901Z,69.51
2023-03-12T17:14:18.924Z,68.98
2023-03-12T17:16:45.811Z,68.99
2023-03-12T17:19:12.621Z,69.40
2023-03-12T17:21:40.058Z,69.27
2023-03-12T17:24:07.274Z,69.32
2023-03-12T17:26:35.292Z,69.27
2023-03-12T17:29:02.269Z,69.03
2023-03-12T17:31:29.143Z,69.31
2023-03-12T17:33:56.403Z,69.27
2023-03-12T17:36:23.197Z,69.58
2023-03-12T17:38:51.051Z,69.34
2023-03-12T17:41:25.975Z,69.50
2023-03-12T17:43:55.073Z,69.51
2023-03-12T17:46:22.031Z,69.50
2023-03-12T17:48:48.855Z,69.39
2023-03-12T17:51:15.637Z,69.96
2023-03-12T17:53:42.468Z,69.31
2023-03-12T17:56:12.278Z,69.62
2023-03-12T17:58:39.271Z,69.89
2023-03-12T18:01:06.073Z,69.97
2023-03-12T18:03:32.943Z,69.74
2023-03-12T18:05:59.936Z,69.69
2023-03-12T18:08:26.718Z,69.78
2023-03-12T18:10:53.521Z,69.84
2023-03-12T18:13:20.363Z,69.71
2023-03-12T18:15:57.292Z,69.77
2023-03-12T18:18:26.475Z,69.85
2023-03-12T18:20:53.761Z,69.90
2023-03-12T18:23:20.738Z,69.79
2023-03-12T18:25:48.639Z,70.08
2023-03-12T18:28:15.533Z,70.01
2023-03-12T18:30:47.480Z,69.89
2023-03-12T18:33:14.909Z,69.89
2023-03-12T18:35:43.954Z,69.93
2023-03-12T18:38:10.918Z,69.71
2023-03-12T18:40:37.766Z,69.91
2023-03-12T18:43:04.738Z,69.90
2023-03-12T18:45:31.578Z,69.90
2023-03-12T18:47:58.520Z,69.96
2023-03-12T18:50:25.328Z,69.96
2023-03-12T18:52:52.132Z,70.12
2023-03-12T18:55:18.987Z,70.02
2023-03-12T18:57:47.531Z,69.94
2023-03-12T19:00:19.641Z,69.68
2023-03-12T19:02:50.181Z,70.11
2023-03-12T19:05:17.194Z,69.94
2023-03-12T19:07:44.550Z,69.87
2023-03-12T19:10:13.198Z,69.79
2023-03-12T19:12:51.718Z,70.03
2023-03-12T19:15:21.465Z,69.93
2023-03-12T19:17:48.334Z,70.16
2023-03-12T19:20:15.571Z,69.76
2023-03-12T19:22:42.403Z,69.96
2023-03-12T19:25:10.361Z,69.90
2023-03-12T19:27:37.132Z,70.04
2023-03-12T19:30:04.635Z,70.13
2023-03-12T19:32:42.265Z,70.07
2023-03-12T19:35:11.840Z,70.24
2023-03-12T19:37:38.676Z,70.41
2023-03-12T19:40:06.696Z,70.17
2023-03-12T19:42:33.937Z,70.48
2023-03-12T19:45:00.725Z,70.29
2023-03-12T19:47:28.009Z,70.12
2023-03-12T19:49:54.804Z,70.43
2023-03-12T19:52:21.614Z,70.16
2023-03-12T19:55:01.482Z,70.24
2023-03-12T19:57:31.552Z,70.12
2023-03-12T19:59:58.777Z,70.30
2023-03-12T20:02:26.251Z,70.27
2023-03-12T20:04:53.294Z,70.28
2023-03-12T20:07:20.060Z,70.50
2023-03-12T20:09:46.840Z,70.44
2023-03-12T20:12:13.669Z,70.77
2023-03-12T20:14:42.639Z,70.60
2023-03-12T20:17:11.055Z,70.82
2023-03-12T20:19:38.796Z,70.53
2023-03-12T20:22:06.517Z,70.22
2023-03-12T20:24:33.309Z,70.33
2023-03-12T20:27:00.135Z,70.39
2023-03-12T20:29:26.916Z,70.62
2023-03-12T20:31:53.785Z,70.60
2023-03-12T20:34:20.692Z,70.42
2023-03-12T20:36:47.538Z,70.68
2023-03-12T20:39:14.346Z,70.18
2023-03-12T20:41:41.186Z,70.56
2023-03-12T20:44:07.960Z,70.48
2023-03-12T20:46:34.787Z,70.47
2023-03-12T20:49:01.559Z,70.53
2023-03-12T20:51:28.324Z,70.71
2023-03-12T20:53:55.141Z,70.62
2023-03-12T20:56:21.920Z,70.25
2023-03-12T20:58:48.677Z,70.38
2023-03-12T21:01:15.527Z,70.27
2023-03-12T21:03:42.386Z,70.26
2023-03-12T21:06:09.182Z,69.97
2023-03-12T21:08:36.056Z,70.48
2023-03-12T21:11:06.628Z,70.16
2023-03-12T21:13:33.694Z,70.60
2023-03-12T21:16:00.487Z,70.38
2023-03-12T21:18:28.874Z,70.51
2023-03-12T21:21:04.776Z,70.20
2023-03-12T21:23:32.403Z,70.25
2023-03-12T21:26:02.285Z,70.48
2023-03-12T21:28:29.630Z,70.30
2023-03-12T21:31:04.218Z,70.51
2023-03-12T21:33:31.060Z,70.41
2023-03-12T21:35:57.879Z,70.63
2023-03-12T21:38:24.743Z,70.51
2023-03-12T21:40:54.079Z,70.53
2023-03-12T21:43:20.958Z,70.63
2023-03-12T21:45:47.754Z,70.92
2023-03-12T21:48:14.529Z,70.59
2023-03-12T21:50:41.370Z,70.63
2023-03-12T21:53:22.825Z,70.94
2023-03-12T21:56:01.501Z,70.71
2023-03-12T21:58:30.552Z,70.63
2023-03-12T22:01:12.933Z,70.60
2023-03-12T22:03:40.701Z,70.73
2023-03-12T22:06:08.058Z,70.62
2023-03-12T22:08:36.181Z,70.74
2023-03-12T22:11:04.093Z,70.72
2023-03-12T22:13:31.057Z,70.86
2023-03-12T22:16:08.054Z,70.77
2023-03-12T22:18:43.648Z,70.47
2023-03-12T22:21:19.208Z,70.83
2023-03-12T22:23:50.952Z,70.74
2023-03-12T22:26:19.551Z,70.84
2023-03-12T22:28:51.406Z,70.73
2023-03-12T22:31:19.623Z,70.79
2023-03-12T22:33:47.014Z,70.78
2023-03-12T22:36:15.378Z,70.86
2023-03-12T22:38:42.577Z,71.15
2023-03-12T22:41:23.283Z,70.98
2023-03-12T22:43:53.556Z,71.16
2023-03-12T22:46:22.855Z,71.01
2023-03-12T22:48:55.340Z,70.78
2023-03-12T22:51:23.333Z,70.83
2023-03-12T22:53:50.283Z,71.12
2023-03-12T22:56:17.927Z,70.72
2023-03-12T22:58:44.974Z,71.20
2023-03-12T23:01:18.961Z,70.69
2023-03-12T23:03:46.741Z,70.96
2023-03-12T23:06:22.848Z,70.98
2023-03-12T23:08:51.129Z,70.67
2023-03-12T23:11:19.558Z,70.67
2023-03-12T23:13:48.088Z,70.73
2023-03-12T23:16:19.287Z,70.95
2023-03-12T23:18:47.182Z,70.87
2023-03-12T23:21:21.354Z,70.44
2023-03-12T23:23:49.599Z,70.97
2023-03-12T23:26:24.257Z,70.83
2023-03-12T23:28:53.288Z,71.04
2023-03-12T23:31:21.136Z,71.22
2023-03-12T23:33:48.102Z,70.94
2023-03-12T23:36:18.620Z,70.58
2023-03-12T23:38:47.132Z,70.82
2023-03-12T23:41:24.204Z,70.49
2023-03-12T23:43:52.162Z,71.05
2023-03-12T23:46:20.079Z,70.66
2023-03-12T23:48:47.197Z,71.05
2023-03-12T23:51:27.418Z,70.50
2023-03-12T23:54:00.875Z,70.90
2023-03-12T23:56:34.095Z,71.02
2023-03-12T23:59:01.060Z,70.89
